Etusivu
METAR-TAF:

METAR-TAF

Lentoasemat :

Comanche County-City Airport

Comanche, Texas, Yhdysvallat

Leveyspiiri: 31-55N, Pituuspiiri: 098-36-01W, korkeus merenpinnasta: 423 m

Tämänhetkinen sää

Tämä raportti tehtiin 21 minuuttia sitten, kello 02.35 UTC
Tuuli 6 kn etelästä/kaakosta
Lämpötila 11°C
Kosteus 76%
Ilmanpaine 1008 hPa
Näkyvyys: 16.1 km
selkeää

METAR: KMKN 150235Z AUTO 15006KT 10SM CLR 11/07 A2977 RMK AO2 T01120070

Aika: 20:56 (02:56 UTC)


TAF: puuttuu

Säähavainnot ja -ennusteet yli 4000 lentoasemalta (METAR- ja TAF-raportit).

Käytössä olevat sääasemat on merkitty karttaan keltaisilla ja punaisilla pisteillä.

Aseta hiiri pisteen päälle nähdäksesi sääaseman nimen.

Klikkaa sitten nähdäksesi säähavainnot ja -ennusteet.

Kartan vaihtaminen: klikkaa mustalla rastilla varustettuja vihreitä pisteitä, niin voit zoomata sisään; viivalla varustettua vihreää pistettä, niin voit zoomata ulos tai vihreitä nuolia, niin pääset viereisille kartoille.


METAR-TAF: